Evansville Regional (EVV)

 

Airport Diagram
Current Weather/Forecast (VFR Conditions)
METAR KEVV 040054Z 35004KT 10SM CLR 23/14 A3004 RMK AO2 SLP169 T02330144 $
TAF KEVV 032320Z 0400/0424 VRB03KT P6SM SCT100 FM040300 VRB02KT P6SM SKC FM041500 02006KT P6SM SCT060

Airport Information

All Charts
General
Chart Name View
AIRPORT DIAGRAM
TAKEOFF MINIMUMS
ALTERNATE MINIMUMS
RADAR MINIMUMS
HOT SPOT

Approaches
Chart Name Download
ILS OR LOC RWY 04
ILS OR LOC RWY 22
RNAV (GPS) RWY 04
RNAV (GPS) RWY 18
RNAV (GPS) RWY 22
RNAV (GPS) RWY 36
VOR RWY 04


Airport Statistics
Departures Arrivals Local
All Collected Stats since June 2016: 294 245 35
2021 Stats: 150 102 24
August Stats: 0 1 0

Inbound Traffic (Arrivals) - 0

No inbound traffic.


Outbound Traffic (Departures) - 0

No outbound traffic.


Local Traffic (Pattern) - 0

No local traffic.